Time;durP1;ratioP1;P1;durP2;ratioP2;P2;SDS_P1;SDS_P2;PMS_P1;PMS_P2;Temp;Humidity;BMP_temperature;BMP_pressure;BME280_temperature;BME280_humidity;BME280_pressure;Samples;Min_cycle;Max_cycle;Signal;HPM_P1;HPM_P2
2022/02/18 00:02:27;;;;;;;12.67;5.37;;;;;;;;;;6220427;28;20225;-70
2022/02/18 00:05:49;;;;;;;12.73;4.63;;;;;;;;;;6219821;28;20236;-70
2022/02/18 00:09:09;;;;;;;14.37;3.87;;;;;;;;;;6212640;28;20244;-70
2022/02/18 00:12:29;;;;;;;12.73;3.73;;;;;;;;;;6228257;28;20241;-70
2022/02/18 00:15:50;;;;;;;9.37;3.50;;;;;;;;;;6216849;28;20884;-69
2022/02/18 00:19:11;;;;;;;11.93;4.43;;;;;;;;;;6221032;28;20260;-70
2022/02/18 00:22:32;;;;;;;18.60;5.03;;;;;;;;;;6208661;28;20233;-69
2022/02/18 00:25:53;;;;;;;14.43;4.57;;;;;;;;;;6218181;28;20229;-71
2022/02/18 00:29:14;;;;;;;15.37;5.77;;;;;;;;;;6218573;28;20225;-69
2022/02/18 00:32:34;;;;;;;13.63;4.63;;;;;;;;;;6217135;28;20241;-69
2022/02/18 00:35:54;;;;;;;9.90;4.87;;;;;;;;;;6205375;28;20237;-68
2022/02/18 00:39:19;;;;;;;11.53;3.37;;;;;;;;;;6221091;28;20233;-71
2022/02/18 00:42:43;;;;;;;10.53;4.27;;;;;;;;;;6206998;28;20245;-69
2022/02/18 00:46:04;;;;;;;14.90;3.93;;;;;;;;;;6194265;28;20229;-69
2022/02/18 00:49:24;;;;;;;14.80;4.30;;;;;;;;;;6218686;28;20229;-69
2022/02/18 00:52:46;;;;;;;11.23;4.30;;;;;;;;;;6190194;28;20245;-69
2022/02/18 00:56:09;;;;;;;17.43;5.30;;;;;;;;;;6201659;28;20226;-70
2022/02/18 00:59:30;;;;;;;12.47;4.60;;;;;;;;;;6221126;28;20225;-70
2022/02/18 01:02:51;;;;;;;16.07;4.90;;;;;;;;;;6218785;28;20221;-69
2022/02/18 01:06:11;;;;;;;10.87;5.13;;;;;;;;;;6220177;28;20828;-69
2022/02/18 01:09:34;;;;;;;10.33;4.67;;;;;;;;;;6218283;28;20237;-70
2022/02/18 01:12:56;;;;;;;14.70;3.37;;;;;;;;;;6211887;28;20253;-70
2022/02/18 01:16:17;;;;;;;12.27;3.37;;;;;;;;;;6214466;28;20242;-71
2022/02/18 01:19:38;;;;;;;15.90;3.53;;;;;;;;;;6213412;28;20240;-68
2022/02/18 01:22:58;;;;;;;11.27;3.83;;;;;;;;;;6215710;28;20257;-69
2022/02/18 01:26:19;;;;;;;8.97;3.63;;;;;;;;;;6218651;28;20302;-71
2022/02/18 01:29:40;;;;;;;15.03;3.90;;;;;;;;;;6219212;28;20229;-71
2022/02/18 01:33:01;;;;;;;12.73;4.20;;;;;;;;;;6218986;28;20224;-68
2022/02/18 01:36:22;;;;;;;20.87;4.73;;;;;;;;;;6211487;28;20715;-70
2022/02/18 01:39:47;;;;;;;12.03;4.20;;;;;;;;;;6207177;28;20232;-70
2022/02/18 01:43:08;;;;;;;10.43;2.90;;;;;;;;;;6210854;28;20229;-69
2022/02/18 01:46:30;;;;;;;21.63;5.07;;;;;;;;;;6219735;28;20225;-71
2022/02/18 01:49:53;;;;;;;14.07;5.10;;;;;;;;;;6203120;28;20906;-69
2022/02/18 01:53:14;;;;;;;10.23;5.13;;;;;;;;;;6202513;28;20368;-69
2022/02/18 01:56:34;;;;;;;9.70;3.90;;;;;;;;;;6215698;28;20637;-70
2022/02/18 01:59:55;;;;;;;9.93;3.37;;;;;;;;;;6216147;28;20225;-69
2022/02/18 02:03:17;;;;;;;13.20;3.67;;;;;;;;;;6202710;28;20280;-69
2022/02/18 02:06:38;;;;;;;10.60;3.87;;;;;;;;;;6221073;28;20256;-69
2022/02/18 02:09:59;;;;;;;10.80;4.53;;;;;;;;;;6220179;28;20224;-69
2022/02/18 02:13:29;;;;;;;10.90;3.73;;;;;;;;;;6202692;28;20232;-69
2022/02/18 02:16:50;;;;;;;13.53;3.50;;;;;;;;;;6202010;28;20233;-69
2022/02/18 02:20:12;;;;;;;17.93;5.67;;;;;;;;;;6202878;28;20233;-69
2022/02/18 02:23:34;;;;;;;18.70;4.03;;;;;;;;;;6211463;28;20820;-69
2022/02/18 02:26:55;;;;;;;12.17;3.73;;;;;;;;;;6201291;28;20596;-70
2022/02/18 02:30:17;;;;;;;11.70;3.40;;;;;;;;;;6202955;28;20233;-68
2022/02/18 02:33:38;;;;;;;10.27;4.40;;;;;;;;;;6193075;28;20240;-69
2022/02/18 02:37:00;;;;;;;12.33;4.93;;;;;;;;;;6202701;28;20786;-69
2022/02/18 02:40:21;;;;;;;10.37;3.83;;;;;;;;;;6191225;28;20776;-69
2022/02/18 02:43:43;;;;;;;9.20;4.37;;;;;;;;;;6180765;28;20228;-69
2022/02/18 02:47:04;;;;;;;14.27;4.07;;;;;;;;;;6201035;28;20244;-69
2022/02/18 02:50:25;;;;;;;19.30;4.97;;;;;;;;;;6213274;28;20229;-69
2022/02/18 02:53:52;;;;;;;16.63;4.37;;;;;;;;;;6203606;28;20662;-70
2022/02/18 02:57:14;;;;;;;16.73;4.03;;;;;;;;;;6194069;28;20337;-69
2022/02/18 03:00:47;;;;;;;17.43;5.33;;;;;;;;;;6209097;28;20634;-67
2022/02/18 03:04:22;;;;;;;7.70;3.47;;;;;;;;;;6197815;28;20224;-70
2022/02/18 03:07:44;;;;;;;18.70;4.47;;;;;;;;;;6212802;28;20721;-68
2022/02/18 03:11:18;;;;;;;11.43;4.20;;;;;;;;;;6199046;28;20253;-70
2022/02/18 03:15:17;;;;;;;16.10;3.47;;;;;;;;;;6195617;28;20228;-69
2022/02/18 03:18:37;;;;;;;12.37;4.43;;;;;;;;;;6200841;28;20249;-70
2022/02/18 03:21:59;;;;;;;16.20;5.67;;;;;;;;;;6200104;28;20229;-69
2022/02/18 03:25:20;;;;;;;13.77;4.33;;;;;;;;;;6195299;28;20225;-71
2022/02/18 03:28:40;;;;;;;9.53;4.13;;;;;;;;;;6202080;28;20638;-70
2022/02/18 03:32:17;;;;;;;14.13;3.97;;;;;;;;;;6218227;28;20236;-70
2022/02/18 03:35:38;;;;;;;18.10;3.73;;;;;;;;;;6215372;28;20252;-69
2022/02/18 03:39:00;;;;;;;14.63;5.10;;;;;;;;;;6211840;28;20234;-69
2022/02/18 03:42:22;;;;;;;10.57;3.20;;;;;;;;;;6192519;28;20795;-71
2022/02/18 03:45:44;;;;;;;15.17;4.57;;;;;;;;;;6203722;28;20221;-69
2022/02/18 03:49:18;;;;;;;9.73;3.77;;;;;;;;;;6193538;28;20789;-68
2022/02/18 03:52:40;;;;;;;14.30;4.17;;;;;;;;;;6200307;28;20233;-68
2022/02/18 03:56:01;;;;;;;11.57;5.13;;;;;;;;;;6198690;28;20233;-68
2022/02/18 03:59:25;;;;;;;16.53;3.17;;;;;;;;;;6212300;28;20225;-68
2022/02/18 04:02:47;;;;;;;17.03;5.30;;;;;;;;;;6214700;28;20562;-69
2022/02/18 04:06:29;;;;;;;12.13;4.47;;;;;;;;;;6178171;28;20232;-69
2022/02/18 04:10:00;;;;;;;14.77;4.70;;;;;;;;;;6220869;28;20225;-69
2022/02/18 04:13:22;;;;;;;14.90;4.93;;;;;;;;;;6203729;28;20237;-69
2022/02/18 04:16:43;;;;;;;11.87;3.30;;;;;;;;;;6206238;28;20249;-69
2022/02/18 04:20:11;;;;;;;12.10;3.77;;;;;;;;;;6218257;28;20595;-69
2022/02/18 04:23:53;;;;;;;13.93;3.90;;;;;;;;;;6204389;28;20603;-69
2022/02/18 04:27:14;;;;;;;18.97;5.97;;;;;;;;;;6202987;28;20481;-69
2022/02/18 04:30:36;;;;;;;14.07;3.47;;;;;;;;;;6215047;28;20232;-70
2022/02/18 04:33:56;;;;;;;8.87;3.17;;;;;;;;;;6219755;28;20241;-69
2022/02/18 04:37:17;;;;;;;13.87;4.47;;;;;;;;;;6208397;28;20245;-69
2022/02/18 04:40:39;;;;;;;14.80;7.13;;;;;;;;;;6218117;28;20241;-70
2022/02/18 04:43:59;;;;;;;10.37;3.70;;;;;;;;;;6214205;28;22004;-69
2022/02/18 04:47:20;;;;;;;10.73;2.80;;;;;;;;;;6221319;28;20232;-69
2022/02/18 04:50:42;;;;;;;14.47;5.87;;;;;;;;;;6214554;28;20853;-68
2022/02/18 04:54:02;;;;;;;12.93;4.23;;;;;;;;;;6214071;28;20241;-70
2022/02/18 04:57:24;;;;;;;10.87;2.90;;;;;;;;;;6217072;28;20229;-69
2022/02/18 05:00:45;;;;;;;11.10;3.40;;;;;;;;;;6220778;28;20237;-69
2022/02/18 05:04:05;;;;;;;9.63;3.03;;;;;;;;;;6216454;28;20610;-69
2022/02/18 05:07:25;;;;;;;10.23;3.83;;;;;;;;;;6218174;28;21314;-69
2022/02/18 05:10:46;;;;;;;8.17;3.50;;;;;;;;;;6218483;28;20562;-70
2022/02/18 05:14:08;;;;;;;13.20;3.27;;;;;;;;;;6228971;28;20244;-69
2022/02/18 05:17:28;;;;;;;9.00;3.33;;;;;;;;;;6208710;28;20233;-69
2022/02/18 05:20:49;;;;;;;10.73;3.47;;;;;;;;;;6218145;28;20509;-69
2022/02/18 05:24:10;;;;;;;13.20;3.80;;;;;;;;;;6218384;28;20240;-70
2022/02/18 05:27:30;;;;;;;9.50;3.10;;;;;;;;;;6213279;28;20249;-68
2022/02/18 05:30:52;;;;;;;8.83;3.27;;;;;;;;;;6222555;28;20930;-70
2022/02/18 05:34:12;;;;;;;13.63;4.40;;;;;;;;;;6215550;28;20523;-69
2022/02/18 05:37:33;;;;;;;13.60;4.63;;;;;;;;;;6215134;28;20262;-69
2022/02/18 05:40:53;;;;;;;11.77;3.50;;;;;;;;;;6215633;28;20241;-69
2022/02/18 05:44:14;;;;;;;12.07;4.27;;;;;;;;;;6220020;28;20232;-68
2022/02/18 05:47:36;;;;;;;12.00;4.83;;;;;;;;;;6208141;28;20554;-69
2022/02/18 05:50:56;;;;;;;12.57;4.83;;;;;;;;;;6216946;28;20237;-69
2022/02/18 05:54:16;;;;;;;10.97;3.57;;;;;;;;;;6207031;28;20335;-69
2022/02/18 05:57:37;;;;;;;9.07;3.80;;;;;;;;;;6212725;28;20233;-69
2022/02/18 06:00:58;;;;;;;11.07;3.37;;;;;;;;;;6217315;28;20289;-69
2022/02/18 06:04:20;;;;;;;10.57;3.93;;;;;;;;;;6216006;28;20515;-70
2022/02/18 06:07:43;;;;;;;9.73;6.17;;;;;;;;;;6210465;28;20238;-70
2022/02/18 06:11:03;;;;;;;10.77;4.03;;;;;;;;;;6214738;28;20230;-69
2022/02/18 06:14:26;;;;;;;16.13;5.73;;;;;;;;;;6221686;28;20677;-69
2022/02/18 06:17:47;;;;;;;9.83;4.50;;;;;;;;;;6218803;28;20257;-72
2022/02/18 06:21:08;;;;;;;8.83;4.23;;;;;;;;;;6209227;28;20241;-69
2022/02/18 06:24:29;;;;;;;16.93;5.83;;;;;;;;;;6214087;28;20233;-69
2022/02/18 06:27:49;;;;;;;13.03;4.80;;;;;;;;;;6190554;28;20250;-69
2022/02/18 06:31:16;;;;;;;14.83;4.80;;;;;;;;;;6213453;28;20284;-69
2022/02/18 06:34:36;;;;;;;14.73;5.37;;;;;;;;;;6217237;28;20237;-70
2022/02/18 06:37:58;;;;;;;9.23;4.63;;;;;;;;;;6214495;28;20241;-70
2022/02/18 06:41:18;;;;;;;11.13;5.60;;;;;;;;;;6212338;28;20233;-69
2022/02/18 06:44:39;;;;;;;11.03;4.80;;;;;;;;;;6219114;28;20228;-70
2022/02/18 06:48:00;;;;;;;17.47;6.67;;;;;;;;;;6222289;28;20308;-69
2022/02/18 06:51:21;;;;;;;11.27;6.50;;;;;;;;;;6207623;28;20252;-69
2022/02/18 06:54:43;;;;;;;7.67;4.37;;;;;;;;;;6212202;28;20631;-70
2022/02/18 06:58:05;;;;;;;7.73;4.53;;;;;;;;;;6212122;28;20760;-69
2022/02/18 07:01:25;;;;;;;11.63;5.57;;;;;;;;;;6211179;28;20228;-69
2022/02/18 07:04:46;;;;;;;10.67;5.77;;;;;;;;;;6208365;28;20711;-70
2022/02/18 07:08:06;;;;;;;7.83;4.37;;;;;;;;;;6211081;28;20245;-69
2022/02/18 07:11:28;;;;;;;11.00;4.80;;;;;;;;;;6216984;28;20229;-70
2022/02/18 07:14:49;;;;;;;13.17;4.93;;;;;;;;;;6218773;28;20236;-68
2022/02/18 07:18:11;;;;;;;6.10;3.37;;;;;;;;;;6215309;28;20744;-70
2022/02/18 07:21:32;;;;;;;13.73;5.60;;;;;;;;;;6219423;28;20229;-69
2022/02/18 07:24:53;;;;;;;9.13;3.93;;;;;;;;;;6208278;28;20236;-69
2022/02/18 07:28:17;;;;;;;13.57;3.90;;;;;;;;;;6216100;28;20597;-69
2022/02/18 07:31:37;;;;;;;13.33;5.70;;;;;;;;;;6211504;28;20245;-69
2022/02/18 07:34:58;;;;;;;11.47;4.67;;;;;;;;;;6215409;28;20501;-69
2022/02/18 07:38:19;;;;;;;13.73;5.47;;;;;;;;;;6194980;28;20288;-69
2022/02/18 07:41:39;;;;;;;13.27;6.27;;;;;;;;;;6215258;28;20252;-69
2022/02/18 07:45:02;;;;;;;9.10;4.80;;;;;;;;;;6220091;28;20237;-69
2022/02/18 07:48:22;;;;;;;10.27;4.90;;;;;;;;;;6219242;28;20240;-70
2022/02/18 07:51:43;;;;;;;11.83;5.13;;;;;;;;;;6219854;28;20237;-69
2022/02/18 07:55:03;;;;;;;10.37;5.33;;;;;;;;;;6223817;28;20650;-70
2022/02/18 07:58:23;;;;;;;12.40;5.50;;;;;;;;;;6222492;28;20509;-69
2022/02/18 08:01:45;;;;;;;16.30;5.17;;;;;;;;;;6217236;28;20320;-69
2022/02/18 08:05:06;;;;;;;11.33;4.47;;;;;;;;;;6220864;28;20233;-68
2022/02/18 08:08:26;;;;;;;8.53;4.10;;;;;;;;;;6211594;28;20233;-69
2022/02/18 08:11:47;;;;;;;15.50;6.00;;;;;;;;;;6215576;28;20233;-69
2022/02/18 08:15:07;;;;;;;12.10;5.53;;;;;;;;;;6215416;28;20225;-70
2022/02/18 08:18:29;;;;;;;14.67;6.63;;;;;;;;;;6222368;28;20228;-70
2022/02/18 08:21:50;;;;;;;20.87;5.17;;;;;;;;;;6216271;28;20228;-70
2022/02/18 08:25:11;;;;;;;12.60;4.43;;;;;;;;;;6212958;28;21208;-68
2022/02/18 08:28:32;;;;;;;10.53;4.17;;;;;;;;;;6218009;28;20229;-68
2022/02/18 08:31:53;;;;;;;12.70;5.80;;;;;;;;;;6219439;28;20233;-69
2022/02/18 08:35:15;;;;;;;11.13;3.93;;;;;;;;;;6215831;28;20513;-69
2022/02/18 08:38:36;;;;;;;12.70;6.00;;;;;;;;;;6217197;28;20336;-69
2022/02/18 08:41:57;;;;;;;13.37;4.43;;;;;;;;;;6212439;28;20517;-70
2022/02/18 08:45:17;;;;;;;10.87;5.10;;;;;;;;;;6217163;28;20225;-70
2022/02/18 08:48:37;;;;;;;9.40;4.67;;;;;;;;;;6218241;28;20308;-70
2022/02/18 08:51:59;;;;;;;9.70;5.27;;;;;;;;;;6216336;28;20226;-69
2022/02/18 08:55:21;;;;;;;13.77;4.87;;;;;;;;;;6217204;28;20237;-69
2022/02/18 08:58:42;;;;;;;11.73;5.00;;;;;;;;;;6214871;28;20241;-69
2022/02/18 09:02:02;;;;;;;14.10;5.67;;;;;;;;;;6217360;28;20233;-69
2022/02/18 09:05:24;;;;;;;11.47;5.70;;;;;;;;;;6213853;28;20264;-69
2022/02/18 09:08:47;;;;;;;14.00;6.67;;;;;;;;;;6216770;28;20733;-69
2022/02/18 09:12:08;;;;;;;9.70;6.37;;;;;;;;;;6218576;28;20929;-69
2022/02/18 09:15:28;;;;;;;14.03;6.77;;;;;;;;;;6217980;28;20229;-69
2022/02/18 09:18:55;;;;;;;14.73;5.03;;;;;;;;;;6194931;28;20312;-70
2022/02/18 09:22:16;;;;;;;9.83;5.03;;;;;;;;;;6213604;28;20342;-70
2022/02/18 09:25:40;;;;;;;14.33;5.57;;;;;;;;;;6209513;28;20228;-69
2022/02/18 09:29:00;;;;;;;13.70;5.87;;;;;;;;;;6215925;28;20232;-69
2022/02/18 09:32:21;;;;;;;13.83;7.27;;;;;;;;;;6220225;28;20277;-69
2022/02/18 09:35:42;;;;;;;8.93;5.97;;;;;;;;;;6215767;28;20614;-69
2022/02/18 09:39:04;;;;;;;10.90;5.70;;;;;;;;;;6219761;28;20327;-69
2022/02/18 09:42:27;;;;;;;14.50;6.93;;;;;;;;;;6217660;28;20304;-69
2022/02/18 09:45:48;;;;;;;13.80;7.33;;;;;;;;;;6223544;28;20311;-68
2022/02/18 09:49:12;;;;;;;15.27;7.93;;;;;;;;;;6216452;28;20237;-69
2022/02/18 09:52:33;;;;;;;15.23;7.20;;;;;;;;;;6210507;28;20228;-69
2022/02/18 09:55:54;;;;;;;8.40;6.07;;;;;;;;;;6214344;28;20222;-69
2022/02/18 09:59:16;;;;;;;13.90;6.30;;;;;;;;;;6221803;28;20311;-69
2022/02/18 10:02:37;;;;;;;13.87;6.53;;;;;;;;;;6215593;28;20241;-69
2022/02/18 10:05:58;;;;;;;15.87;6.40;;;;;;;;;;6212240;28;20229;-70
2022/02/18 10:09:33;;;;;;;16.37;6.70;;;;;;;;;;6215427;28;20591;-70
2022/02/18 10:12:54;;;;;;;13.90;5.30;;;;;;;;;;6214368;28;20317;-69
2022/02/18 10:16:17;;;;;;;10.17;5.20;;;;;;;;;;6219129;28;20533;-69
2022/02/18 10:19:49;;;;;;;12.00;7.30;;;;;;;;;;6212809;28;20237;-69
2022/02/18 10:23:09;;;;;;;12.80;6.00;;;;;;;;;;6216218;28;20232;-69
2022/02/18 10:26:37;;;;;;;13.10;5.03;;;;;;;;;;6214784;28;20236;-69
2022/02/18 10:29:58;;;;;;;9.50;3.57;;;;;;;;;;6214370;28;20253;-70
2022/02/18 10:33:22;;;;;;;7.63;3.77;;;;;;;;;;6210658;28;20249;-69
2022/02/18 10:36:43;;;;;;;10.17;5.87;;;;;;;;;;6215957;28;20242;-70
2022/02/18 10:40:10;;;;;;;11.67;5.67;;;;;;;;;;6215192;28;20233;-70
2022/02/18 10:43:42;;;;;;;14.40;7.67;;;;;;;;;;6210573;28;20229;-70
2022/02/18 10:47:05;;;;;;;11.10;6.97;;;;;;;;;;6220326;28;20319;-70
2022/02/18 10:50:27;;;;;;;12.53;6.87;;;;;;;;;;6209789;28;20233;-70
2022/02/18 10:53:48;;;;;;;10.50;6.03;;;;;;;;;;6209845;28;20229;-70
2022/02/18 10:57:12;;;;;;;9.60;6.33;;;;;;;;;;6213540;28;20324;-69
2022/02/18 11:00:33;;;;;;;14.93;7.30;;;;;;;;;;6216703;28;20229;-70
2022/02/18 11:03:54;;;;;;;11.83;6.33;;;;;;;;;;6212754;28;20244;-70
2022/02/18 11:07:17;;;;;;;10.50;6.20;;;;;;;;;;6213314;28;20512;-69
2022/02/18 11:10:39;;;;;;;11.87;7.17;;;;;;;;;;6217758;28;20666;-70
2022/02/18 11:14:00;;;;;;;14.23;7.00;;;;;;;;;;6211604;28;20260;-69
2022/02/18 11:17:21;;;;;;;12.27;6.53;;;;;;;;;;6209569;28;20705;-70
2022/02/18 11:20:43;;;;;;;11.60;8.07;;;;;;;;;;6205486;28;20225;-70
2022/02/18 11:24:07;;;;;;;8.53;6.17;;;;;;;;;;6209295;28;20232;-70
2022/02/18 11:27:29;;;;;;;12.23;6.93;;;;;;;;;;6214302;28;20319;-70
2022/02/18 11:30:51;;;;;;;14.90;8.03;;;;;;;;;;6212120;28;20233;-71
2022/02/18 11:34:20;;;;;;;12.50;7.27;;;;;;;;;;6208236;28;20229;-70
2022/02/18 11:38:08;;;;;;;12.90;7.60;;;;;;;;;;6213357;28;20519;-69
2022/02/18 11:41:40;;;;;;;12.27;8.17;;;;;;;;;;6198257;28;20233;-70
2022/02/18 11:45:02;;;;;;;12.60;8.07;;;;;;;;;;6211638;28;20225;-71
2022/02/18 11:48:35;;;;;;;13.33;9.43;;;;;;;;;;6213633;28;20230;-70
2022/02/18 11:52:07;;;;;;;16.27;9.37;;;;;;;;;;6214297;28;20229;-70
2022/02/18 11:55:29;;;;;;;13.70;8.60;;;;;;;;;;6205725;28;20512;-70
2022/02/18 11:58:53;;;;;;;12.80;9.17;;;;;;;;;;6210156;28;20507;-70
2022/02/18 12:02:13;;;;;;;16.07;9.83;;;;;;;;;;6212309;28;20245;-70
2022/02/18 12:05:34;;;;;;;13.20;7.87;;;;;;;;;;6214662;28;20237;-69
2022/02/18 12:08:57;;;;;;;16.50;8.33;;;;;;;;;;6213243;28;20229;-71
2022/02/18 12:12:20;;;;;;;10.90;7.00;;;;;;;;;;6210251;28;20233;-72
2022/02/18 12:15:42;;;;;;;13.03;7.60;;;;;;;;;;6214184;28;20228;-71
2022/02/18 12:19:04;;;;;;;20.87;10.10;;;;;;;;;;6213349;28;20255;-71
2022/02/18 12:22:31;;;;;;;11.07;7.07;;;;;;;;;;6207440;28;20225;-73
2022/02/18 12:26:24;;;;;;;13.83;8.40;;;;;;;;;;6211214;28;20229;-72
2022/02/18 12:29:45;;;;;;;13.87;7.13;;;;;;;;;;6218679;28;20678;-73
2022/02/18 12:33:08;;;;;;;8.93;4.93;;;;;;;;;;6221827;28;20493;-72
2022/02/18 12:36:31;;;;;;;11.30;6.70;;;;;;;;;;6211993;28;20233;-72
2022/02/18 12:39:54;;;;;;;11.33;4.63;;;;;;;;;;6217135;28;20233;-72
2022/02/18 12:43:17;;;;;;;9.50;6.23;;;;;;;;;;6213167;28;20248;-70
2022/02/18 12:46:37;;;;;;;9.70;4.47;;;;;;;;;;6224890;28;20517;-71
2022/02/18 12:50:00;;;;;;;9.73;4.60;;;;;;;;;;6215716;28;20233;-72
2022/02/18 12:53:21;;;;;;;7.90;4.67;;;;;;;;;;6217097;28;20229;-72
2022/02/18 12:56:41;;;;;;;7.20;3.77;;;;;;;;;;6216830;28;20564;-69
2022/02/18 13:00:05;;;;;;;8.17;4.23;;;;;;;;;;6221127;28;20229;-71
2022/02/18 13:03:26;;;;;;;7.30;4.17;;;;;;;;;;6206010;28;20233;-70
2022/02/18 13:06:47;;;;;;;13.50;4.50;;;;;;;;;;6217469;28;20232;-70
2022/02/18 13:10:09;;;;;;;8.90;3.77;;;;;;;;;;6215454;28;20654;-71
2022/02/18 13:13:34;;;;;;;10.77;4.53;;;;;;;;;;6216156;28;20229;-69
2022/02/18 13:16:54;;;;;;;8.47;4.27;;;;;;;;;;6212953;28;20221;-72
2022/02/18 13:20:16;;;;;;;7.53;4.00;;;;;;;;;;6210977;28;20245;-70
2022/02/18 13:23:37;;;;;;;7.93;4.40;;;;;;;;;;6211125;28;20233;-70
2022/02/18 13:26:58;;;;;;;12.93;4.83;;;;;;;;;;6214803;28;20225;-70
2022/02/18 13:30:19;;;;;;;9.43;3.90;;;;;;;;;;6223502;28;20229;-70
2022/02/18 13:33:41;;;;;;;7.90;4.17;;;;;;;;;;6217109;28;20640;-69
2022/02/18 13:37:02;;;;;;;10.20;5.13;;;;;;;;;;6212149;28;20226;-70
2022/02/18 13:40:26;;;;;;;9.73;5.00;;;;;;;;;;6212136;28;20248;-70
2022/02/18 13:43:46;;;;;;;10.90;4.30;;;;;;;;;;6209445;28;20245;-69
2022/02/18 13:47:07;;;;;;;10.47;4.77;;;;;;;;;;6226946;28;20229;-69
2022/02/18 13:50:28;;;;;;;7.00;3.83;;;;;;;;;;6217729;28;20525;-70
2022/02/18 13:53:49;;;;;;;5.87;3.90;;;;;;;;;;6216895;28;20598;-70
2022/02/18 13:57:12;;;;;;;4.70;3.93;;;;;;;;;;6216341;28;20586;-70
2022/02/18 14:00:35;;;;;;;11.00;4.70;;;;;;;;;;6215082;28;20284;-70
2022/02/18 14:03:55;;;;;;;8.87;4.60;;;;;;;;;;6208950;28;20233;-70
2022/02/18 14:07:18;;;;;;;7.83;3.83;;;;;;;;;;6215673;28;20233;-70
2022/02/18 14:10:43;;;;;;;7.77;4.40;;;;;;;;;;6220532;28;20570;-70
2022/02/18 14:14:16;;;;;;;5.87;3.97;;;;;;;;;;6215436;28;20241;-72
2022/02/18 14:17:42;;;;;;;6.13;3.90;;;;;;;;;;6212304;28;20241;-70
2022/02/18 14:21:02;;;;;;;4.10;3.70;;;;;;;;;;6213874;28;20233;-70
2022/02/18 14:24:30;;;;;;;4.50;3.80;;;;;;;;;;6207953;28;20622;-70
2022/02/18 14:27:51;;;;;;;7.10;4.13;;;;;;;;;;6219888;28;20582;-70
2022/02/18 14:31:20;;;;;;;6.17;3.97;;;;;;;;;;6213865;28;20225;-70
2022/02/18 14:34:55;;;;;;;7.07;3.80;;;;;;;;;;6213553;28;20225;-69
2022/02/18 14:38:16;;;;;;;6.43;3.97;;;;;;;;;;6213988;28;20276;-70
2022/02/18 14:41:57;;;;;;;6.00;3.23;;;;;;;;;;6213325;28;20571;-70
2022/02/18 14:45:21;;;;;;;4.77;2.83;;;;;;;;;;6217366;28;20262;-70
2022/02/18 14:48:44;;;;;;;4.17;3.77;;;;;;;;;;6216098;28;20229;-70
2022/02/18 14:52:05;;;;;;;9.07;4.17;;;;;;;;;;6212506;28;20237;-70
2022/02/18 14:55:26;;;;;;;5.40;3.40;;;;;;;;;;6209832;28;20622;-70
2022/02/18 14:58:46;;;;;;;5.63;3.40;;;;;;;;;;6210771;28;20245;-71
2022/02/18 15:02:08;;;;;;;7.40;3.63;;;;;;;;;;6219702;28;20610;-71
2022/02/18 15:05:29;;;;;;;5.73;3.63;;;;;;;;;;6214664;28;20241;-71
2022/02/18 15:08:50;;;;;;;8.77;5.13;;;;;;;;;;6213923;28;20328;-70
2022/02/18 15:12:11;;;;;;;3.40;3.20;;;;;;;;;;6211624;28;20233;-70
2022/02/18 15:15:32;;;;;;;6.90;3.50;;;;;;;;;;6211933;28;20235;-70
2022/02/18 15:18:52;;;;;;;5.00;3.60;;;;;;;;;;6216466;28;20241;-70
2022/02/18 15:22:14;;;;;;;6.93;3.30;;;;;;;;;;6216202;28;20327;-69
2022/02/18 15:25:36;;;;;;;4.30;2.90;;;;;;;;;;6211708;28;20241;-70
2022/02/18 15:28:57;;;;;;;7.43;4.13;;;;;;;;;;6209838;28;20236;-70
2022/02/18 15:35:56;;;;;;;3.77;2.47;;;;;;;;;;6211430;28;20225;-71
2022/02/18 15:42:57;;;;;;;5.00;3.40;;;;;;;;;;6207738;28;20236;-71
2022/02/18 15:46:18;;;;;;;4.97;3.27;;;;;;;;;;6216969;28;20236;-71
2022/02/18 15:49:39;;;;;;;4.33;3.93;;;;;;;;;;6209495;28;20256;-72
2022/02/18 15:52:59;;;;;;;3.90;3.60;;;;;;;;;;6213181;28;20249;-72
2022/02/18 15:56:21;;;;;;;5.30;4.80;;;;;;;;;;6198061;28;20615;-72
2022/02/18 15:59:42;;;;;;;4.30;3.90;;;;;;;;;;6215852;28;20854;-73
2022/02/18 16:03:05;;;;;;;4.53;3.73;;;;;;;;;;6212166;28;20614;-72
2022/02/18 16:06:25;;;;;;;5.23;4.80;;;;;;;;;;6215372;28;20534;-74
2022/02/18 16:09:46;;;;;;;3.60;3.30;;;;;;;;;;6216729;28;20229;-73
2022/02/18 16:13:07;;;;;;;1.83;1.50;;;;;;;;;;6213184;28;20260;-74
2022/02/18 16:16:28;;;;;;;1.23;0.80;;;;;;;;;;6223688;28;20316;-73
2022/02/18 16:19:49;;;;;;;1.00;0.90;;;;;;;;;;6218932;28;20252;-73
2022/02/18 16:23:11;;;;;;;1.23;0.87;;;;;;;;;;6210532;28;20229;-72
2022/02/18 16:26:31;;;;;;;2.83;0.80;;;;;;;;;;6214743;28;20722;-72
2022/02/18 16:29:53;;;;;;;1.13;0.80;;;;;;;;;;6218208;28;20506;-73
2022/02/18 16:33:13;;;;;;;1.37;1.00;;;;;;;;;;6224557;28;20323;-72
2022/02/18 16:36:34;;;;;;;1.60;1.50;;;;;;;;;;6217560;28;20237;-72
2022/02/18 16:39:55;;;;;;;1.60;0.93;;;;;;;;;;6219214;28;20241;-74
2022/02/18 16:43:15;;;;;;;1.83;1.43;;;;;;;;;;6216745;28;20333;-74
2022/02/18 16:46:37;;;;;;;1.23;1.00;;;;;;;;;;6220205;28;20237;-74
2022/02/18 16:49:58;;;;;;;5.10;1.37;;;;;;;;;;6212755;28;20233;-74
2022/02/18 16:53:18;;;;;;;2.77;0.90;;;;;;;;;;6211136;28;20562;-73
2022/02/18 16:56:39;;;;;;;5.23;0.90;;;;;;;;;;6216262;28;20229;-74
2022/02/18 17:00:00;;;;;;;4.97;1.07;;;;;;;;;;6215650;28;20229;-73
2022/02/18 17:03:22;;;;;;;4.60;1.30;;;;;;;;;;6217236;28;20262;-75
2022/02/18 17:06:43;;;;;;;4.77;2.20;;;;;;;;;;6209714;28;20315;-74
2022/02/18 17:10:04;;;;;;;8.67;2.80;;;;;;;;;;6220419;28;20233;-72
2022/02/18 17:13:24;;;;;;;2.60;1.30;;;;;;;;;;6215311;28;20233;-72
2022/02/18 17:16:46;;;;;;;6.50;2.33;;;;;;;;;;6199242;28;20249;-73
2022/02/18 17:20:09;;;;;;;5.57;1.93;;;;;;;;;;6215932;28;20248;-72
2022/02/18 17:23:29;;;;;;;6.10;1.87;;;;;;;;;;6208488;28;20767;-72
2022/02/18 17:26:50;;;;;;;2.90;1.70;;;;;;;;;;6211196;28;20237;-72
2022/02/18 17:30:11;;;;;;;5.70;1.90;;;;;;;;;;6221032;28;20587;-72
2022/02/18 17:33:34;;;;;;;4.47;1.47;;;;;;;;;;6212431;28;20425;-72
2022/02/18 17:36:56;;;;;;;4.83;1.97;;;;;;;;;;6215605;28;20237;-73
2022/02/18 17:40:17;;;;;;;6.83;3.03;;;;;;;;;;6214014;28;20241;-73
2022/02/18 17:43:38;;;;;;;6.43;1.83;;;;;;;;;;6218698;28;20248;-71
2022/02/18 17:46:58;;;;;;;11.60;3.23;;;;;;;;;;6222403;28;20232;-71
2022/02/18 17:50:19;;;;;;;12.37;2.30;;;;;;;;;;6214014;28;20631;-71
2022/02/18 17:53:41;;;;;;;10.37;2.50;;;;;;;;;;6212289;28;20233;-72
2022/02/18 17:57:01;;;;;;;8.00;2.70;;;;;;;;;;6215453;28;20320;-71
2022/02/18 18:00:22;;;;;;;3.37;2.07;;;;;;;;;;6211933;28;20264;-71
2022/02/18 18:03:42;;;;;;;7.70;2.73;;;;;;;;;;6210658;28;20229;-71
2022/02/18 18:07:03;;;;;;;7.27;2.50;;;;;;;;;;6211467;28;20229;-72
2022/02/18 18:10:25;;;;;;;12.00;2.60;;;;;;;;;;6208358;28;20229;-71
2022/02/18 18:13:45;;;;;;;4.07;2.10;;;;;;;;;;6211246;28;20233;-75
2022/02/18 18:17:06;;;;;;;10.23;2.93;;;;;;;;;;6208340;28;20233;-76
2022/02/18 18:20:27;;;;;;;6.47;2.63;;;;;;;;;;6212861;28;20233;-75
2022/02/18 18:23:47;;;;;;;8.77;2.20;;;;;;;;;;6206905;28;20608;-77
2022/02/18 18:27:09;;;;;;;2.63;1.83;;;;;;;;;;6215579;28;20312;-75
2022/02/18 18:30:30;;;;;;;6.20;2.40;;;;;;;;;;6208036;28;20229;-75
2022/02/18 18:33:50;;;;;;;7.63;1.90;;;;;;;;;;6210671;28;20512;-74
2022/02/18 18:37:11;;;;;;;7.83;2.23;;;;;;;;;;6211568;28;20622;-74
2022/02/18 18:40:32;;;;;;;8.97;3.50;;;;;;;;;;6199401;28;20228;-74
2022/02/18 18:43:54;;;;;;;13.83;3.63;;;;;;;;;;6215257;28;20237;-73
2022/02/18 18:47:14;;;;;;;6.00;3.57;;;;;;;;;;6217712;28;20229;-73
2022/02/18 18:50:35;;;;;;;8.87;2.97;;;;;;;;;;6215678;28;20259;-73
2022/02/18 18:53:55;;;;;;;5.73;2.50;;;;;;;;;;6218281;28;20236;-74
2022/02/18 18:57:16;;;;;;;7.87;2.37;;;;;;;;;;6215432;28;20493;-72
2022/02/18 19:00:37;;;;;;;5.47;2.47;;;;;;;;;;6222100;28;21961;-72
2022/02/18 19:03:58;;;;;;;5.60;2.57;;;;;;;;;;6220506;28;20244;-71
2022/02/18 19:07:18;;;;;;;6.60;2.87;;;;;;;;;;6214026;28;20229;-71
2022/02/18 19:10:39;;;;;;;9.53;3.10;;;;;;;;;;6218552;28;20308;-72
2022/02/18 19:14:04;;;;;;;5.47;2.93;;;;;;;;;;6213530;28;20232;-72
2022/02/18 19:17:26;;;;;;;8.30;2.83;;;;;;;;;;6213234;28;20586;-72
2022/02/18 19:20:46;;;;;;;13.23;3.70;;;;;;;;;;6204895;28;20603;-71
2022/02/18 19:24:08;;;;;;;6.37;3.17;;;;;;;;;;6212578;28;20240;-72
2022/02/18 19:27:28;;;;;;;4.87;1.93;;;;;;;;;;6211743;28;20233;-72
2022/02/18 19:30:49;;;;;;;5.73;2.00;;;;;;;;;;6215323;28;20233;-73
2022/02/18 19:34:12;;;;;;;6.97;1.83;;;;;;;;;;6216598;28;20237;-71
2022/02/18 19:37:32;;;;;;;6.07;2.40;;;;;;;;;;6210945;28;20250;-72
2022/02/18 19:40:54;;;;;;;7.07;2.93;;;;;;;;;;6220383;28;20232;-72
2022/02/18 19:44:14;;;;;;;5.83;2.57;;;;;;;;;;6212812;28;20225;-72
2022/02/18 19:47:35;;;;;;;5.03;2.50;;;;;;;;;;6205203;28;20225;-71
2022/02/18 19:50:57;;;;;;;3.23;2.23;;;;;;;;;;6222829;28;20236;-70
2022/02/18 19:54:17;;;;;;;3.93;1.77;;;;;;;;;;6210261;28;20494;-73
2022/02/18 19:57:38;;;;;;;3.83;2.07;;;;;;;;;;6220988;28;20233;-72
2022/02/18 20:00:59;;;;;;;7.53;3.20;;;;;;;;;;6221637;28;20245;-71
2022/02/18 20:04:19;;;;;;;6.20;2.60;;;;;;;;;;6211882;28;20229;-73
2022/02/18 20:07:41;;;;;;;7.83;2.77;;;;;;;;;;6214926;28;20252;-74
2022/02/18 20:11:02;;;;;;;5.10;2.23;;;;;;;;;;6222693;28;20256;-74